Time;durP1;ratioP1;P1;durP2;ratioP2;P2;SDS_P1;SDS_P2;PMS_P1;PMS_P2;Temp;Humidity;BMP_temperature;BMP_pressure;BME280_temperature;BME280_humidity;BME280_pressure;Samples;Min_cycle;Max_cycle;Signal;HPM_P1;HPM_P2
2022/06/13 00:02:03;;;;;;;7.80;3.70;;;;;17.20;97452.60;;;;108870;1267;42322;-66
2022/06/13 00:04:35;;;;;;;6.90;3.00;;;;;17.20;97450.80;;;;108800;1268;41225;-66
2022/06/13 00:07:05;;;;;;;6.00;2.70;;;;;17.18;97449.20;;;;108861;1268;41173;-66
2022/06/13 00:09:35;;;;;;;8.00;3.70;;;;;17.10;97451.20;;;;108898;1267;41624;-66
2022/06/13 00:12:05;;;;;;;6.70;2.80;;;;;16.92;97463.40;;;;109017;1267;41181;-67
2022/06/13 00:14:35;;;;;;;6.50;2.60;;;;;16.90;97466.40;;;;108888;1267;41612;-66
2022/06/13 00:17:05;;;;;;;7.10;2.70;;;;;16.90;97464.40;;;;109021;1267;41158;-66
2022/06/13 00:19:36;;;;;;;6.10;2.90;;;;;16.88;97465.20;;;;109009;1268;41684;-65
2022/06/13 00:22:06;;;;;;;5.60;2.60;;;;;16.80;97466.80;;;;108920;1267;41741;-66
2022/06/13 00:24:37;;;;;;;5.10;2.40;;;;;16.80;97466.20;;;;108773;1267;41779;-65
2022/06/13 00:27:07;;;;;;;;;;;;;16.80;97462.20;;;;108956;1266;42413;-65
2022/06/13 00:29:38;;;;;;;9.50;4.40;;;;;16.74;97463.00;;;;108896;1267;41181;-66
2022/06/13 00:32:09;;;;;;;7.70;3.80;;;;;16.80;97465.60;;;;108834;1268;41678;-65
2022/06/13 00:34:39;;;;;;;7.00;3.20;;;;;16.80;97463.20;;;;108837;1267;42860;-65
2022/06/13 00:37:09;;;;;;;7.10;2.90;;;;;16.70;97462.60;;;;108885;1267;41367;-65
2022/06/13 00:39:39;;;;;;;7.60;3.50;;;;;16.70;97461.20;;;;108706;1270;41613;-65
2022/06/13 00:42:10;;;;;;;;;;;;;16.66;97460.60;;;;108887;1267;41165;-67
2022/06/13 00:44:41;;;;;;;6.00;2.80;;;;;16.60;97458.00;;;;108801;1267;41170;-66
2022/06/13 00:47:11;;;;;;;7.10;3.10;;;;;16.50;97457.20;;;;108843;1267;41297;-66
2022/06/13 00:49:45;;;;;;;5.90;2.80;;;;;16.50;97457.00;;;;108876;1268;41162;-66
2022/06/13 00:52:31;;;;;;;5.30;2.60;;;;;16.40;97457.40;;;;108830;1269;41182;-66
2022/06/13 00:55:01;;;;;;;6.30;2.60;;;;;16.40;97453.20;;;;108814;1267;41342;-67
2022/06/13 00:57:31;;;;;;;5.90;2.70;;;;;16.32;97446.40;;;;108712;1270;41163;-66
2022/06/13 01:00:07;;;;;;;5.80;2.60;;;;;16.30;97448.40;;;;108856;1269;41184;-66
2022/06/13 01:02:40;;;;;;;5.50;2.60;;;;;16.30;97448.80;;;;108719;1267;41343;-64
2022/06/13 01:05:10;;;;;;;5.40;2.70;;;;;16.26;97451.60;;;;108870;1268;41203;-66
2022/06/13 01:07:40;;;;;;;6.40;2.70;;;;;16.20;97450.80;;;;108970;1267;42124;-67
2022/06/13 01:13:03;;;;;;;5.90;2.50;;;;;16.20;97450.00;;;;108914;1267;41167;-66
2022/06/13 01:16:09;;;;;;;6.00;2.60;;;;;16.10;97452.00;;;;108705;1268;41555;-64
2022/06/13 01:18:48;;;;;;;5.70;2.40;;;;;16.10;97450.60;;;;108911;1268;41527;-66
2022/06/13 01:21:42;;;;;;;6.10;2.80;;;;;16.10;97450.00;;;;108942;1267;41738;-66
2022/06/13 01:24:43;;;;;;;5.90;2.40;;;;;16.10;97450.20;;;;108915;1267;41165;-66
2022/06/13 01:27:37;;;;;;;6.80;2.70;;;;;16.00;97442.60;;;;108898;1267;42201;-66
2022/06/13 01:30:45;;;;;;;9.80;3.80;;;;;16.00;97441.80;;;;108880;1270;42155;-66
2022/06/13 01:33:53;;;;;;;6.50;2.90;;;;;15.84;97445.40;;;;108742;1270;41158;-66
2022/06/13 01:36:26;;;;;;;6.20;2.80;;;;;15.80;97441.80;;;;108906;1267;41222;-65
2022/06/13 01:39:29;;;;;;;6.60;2.90;;;;;15.80;97438.00;;;;108813;1267;41288;-65
2022/06/13 01:42:30;;;;;;;8.50;3.70;;;;;15.80;97435.40;;;;108221;1276;41968;-66
2022/06/13 01:45:28;;;;;;;11.70;4.30;;;;;15.56;97432.40;;;;108225;1276;41938;-66
2022/06/13 01:48:23;;;;;;;8.50;4.00;;;;;15.36;97431.60;;;;108257;1276;41221;-66
2022/06/13 01:51:01;;;;;;;8.00;3.90;;;;;15.22;97438.40;;;;108210;1276;41303;-64
2022/06/13 01:54:02;;;;;;;7.40;3.50;;;;;15.20;97440.00;;;;108309;1276;42114;-66
2022/06/13 01:56:45;;;;;;;8.70;3.90;;;;;15.20;97434.40;;;;108291;1276;41295;-67
2022/06/13 01:59:33;;;;;;;7.00;3.00;;;;;15.22;97429.40;;;;108226;1276;41194;-66
2022/06/13 02:02:13;;;;;;;7.40;2.90;;;;;15.30;97427.20;;;;108354;1276;41387;-66
2022/06/13 02:05:00;;;;;;;6.50;3.10;;;;;15.30;97423.40;;;;108279;1275;41761;-65
2022/06/13 02:07:39;;;;;;;9.00;3.00;;;;;15.30;97420.80;;;;108218;1276;41403;-67
2022/06/13 02:10:32;;;;;;;6.10;2.80;;;;;15.38;97421.60;;;;108294;1276;41176;-66
2022/06/13 02:13:15;;;;;;;6.90;3.10;;;;;15.40;97416.60;;;;108260;1276;42023;-66
2022/06/13 02:15:47;;;;;;;6.40;2.90;;;;;15.40;97416.20;;;;108237;1276;41179;-66
2022/06/13 02:18:32;;;;;;;7.50;3.10;;;;;15.40;97412.20;;;;108247;1273;41198;-66
2022/06/13 02:21:11;;;;;;;6.30;2.80;;;;;15.40;97408.40;;;;108831;1268;41641;-65
2022/06/13 02:23:48;;;;;;;5.50;2.60;;;;;15.40;97404.40;;;;108863;1268;41181;-65
2022/06/13 02:26:24;;;;;;;8.20;3.50;;;;;15.40;97406.40;;;;108814;1269;41756;-66
2022/06/13 02:29:17;;;;;;;6.50;3.00;;;;;15.40;97404.00;;;;108747;1270;41177;-65
2022/06/13 02:31:54;;;;;;;9.00;4.10;;;;;15.38;97404.40;;;;108797;1269;42080;-66
2022/06/13 02:34:39;;;;;;;8.80;4.20;;;;;15.30;97406.00;;;;108814;1269;41361;-66
2022/06/13 02:37:16;;;;;;;8.20;4.10;;;;;15.20;97407.40;;;;108801;1269;42089;-65
2022/06/13 02:39:56;;;;;;;8.00;4.00;;;;;15.20;97410.80;;;;108803;1267;41182;-65
2022/06/13 02:42:31;;;;;;;6.80;3.20;;;;;15.20;97417.40;;;;108912;1268;41651;-66
2022/06/13 02:45:04;;;;;;;7.70;3.20;;;;;15.20;97405.80;;;;108723;1270;41215;-65
2022/06/13 02:48:01;;;;;;;6.70;3.10;;;;;15.28;97408.00;;;;108715;1270;41272;-65
2022/06/13 02:50:39;;;;;;;7.60;2.90;;;;;15.30;97409.60;;;;108723;1270;41180;-66
2022/06/13 02:53:38;;;;;;;6.20;2.70;;;;;15.30;97408.00;;;;108845;1267;41198;-66
2022/06/13 02:56:11;;;;;;;6.40;2.80;;;;;15.30;97412.60;;;;108800;1270;42559;-66
2022/06/13 02:59:03;;;;;;;7.50;3.40;;;;;15.30;97416.40;;;;108528;1270;41398;-66
2022/06/13 03:01:42;;;;;;;6.60;3.10;;;;;15.36;97415.00;;;;108804;1270;41202;-66
2022/06/13 03:04:39;;;;;;;7.50;3.60;;;;;15.32;97413.80;;;;108522;1270;41177;-65
2022/06/13 03:07:32;;;;;;;6.90;3.20;;;;;15.40;97414.00;;;;108802;1269;41334;-66
2022/06/13 03:10:25;;;;;;;7.10;3.20;;;;;15.40;97415.00;;;;108810;1269;42187;-65
2022/06/13 03:13:02;;;;;;;8.70;3.90;;;;;15.50;97427.20;;;;108827;1270;41172;-65
2022/06/13 03:16:10;;;;;;;7.30;3.40;;;;;15.50;97426.40;;;;108775;1270;41861;-66
2022/06/13 03:18:56;;;;;;;7.80;3.60;;;;;15.60;97425.00;;;;108895;1270;41183;-66
2022/06/13 03:21:32;;;;;;;7.60;3.30;;;;;15.60;97424.80;;;;108810;1270;41183;-66
2022/06/13 03:24:18;;;;;;;7.40;3.50;;;;;15.70;97426.20;;;;108887;1270;41690;-65
2022/06/13 03:26:54;;;;;;;7.80;3.70;;;;;15.80;97423.20;;;;108709;1270;41506;-66
2022/06/13 03:29:31;;;;;;;8.80;4.60;;;;;15.86;97423.20;;;;108807;1270;41171;-66
2022/06/13 03:32:09;;;;;;;8.30;3.90;;;;;15.90;97420.20;;;;108790;1269;41352;-65
2022/06/13 03:34:42;;;;;;;8.40;3.60;;;;;15.94;97420.60;;;;108780;1269;41742;-66
2022/06/13 03:37:13;;;;;;;10.50;3.30;;;;;16.00;97420.40;;;;108800;1267;41386;-66
2022/06/13 03:39:51;;;;;;;7.00;3.20;;;;;16.00;97421.00;;;;108828;1270;41177;-66
2022/06/13 03:42:26;;;;;;;7.00;2.80;;;;;16.10;97422.40;;;;108835;1269;41184;-66
2022/06/13 03:44:59;;;;;;;6.10;2.80;;;;;16.10;97421.00;;;;108707;1270;41600;-65
2022/06/13 03:47:37;;;;;;;6.80;2.80;;;;;16.20;97423.40;;;;108700;1270;41196;-65
2022/06/13 03:50:24;;;;;;;6.70;3.00;;;;;16.30;97418.60;;;;108815;1267;41724;-65
2022/06/13 03:53:05;;;;;;;6.10;2.70;;;;;16.40;97422.80;;;;108887;1267;41180;-65
2022/06/13 03:55:42;;;;;;;5.80;2.70;;;;;16.48;97428.20;;;;108880;1268;41216;-65
2022/06/13 03:58:15;;;;;;;6.60;3.10;;;;;16.54;97419.60;;;;108890;1267;41636;-65
2022/06/13 04:00:57;;;;;;;6.90;3.10;;;;;16.66;97420.40;;;;108970;1267;41162;-66
2022/06/13 04:03:27;;;;;;;;;;;;;16.78;97422.20;;;;108995;1266;41284;-66
2022/06/13 04:06:00;;;;;;;7.50;3.40;;;;;16.82;97427.60;;;;109049;1267;41167;-66
2022/06/13 04:08:34;;;;;;;8.10;3.50;;;;;17.00;97420.60;;;;108986;1267;41407;-66
2022/06/13 04:11:20;;;;;;;7.60;3.30;;;;;17.10;97419.00;;;;108862;1268;41219;-65
2022/06/13 04:14:02;;;;;;;7.30;3.20;;;;;17.22;97416.20;;;;108911;1268;41174;-66
2022/06/13 04:16:40;;;;;;;6.40;3.00;;;;;17.40;97415.00;;;;108940;1267;41178;-66
2022/06/13 04:19:12;;;;;;;8.10;3.40;;;;;17.60;97418.40;;;;108960;1266;41207;-66
2022/06/13 04:21:45;;;;;;;8.10;4.20;;;;;18.02;97410.80;;;;108955;1267;41655;-64
2022/06/13 04:24:49;;;;;;;9.10;4.80;;;;;19.22;97397.40;;;;108692;1268;41168;-66
2022/06/13 04:27:29;;;;;;;9.20;4.40;;;;;20.58;97398.40;;;;108791;1267;41291;-66
2022/06/13 04:30:14;;;;;;;10.20;3.70;;;;;21.54;97396.60;;;;108865;1267;41198;-66
2022/06/13 04:33:07;;;;;;;8.00;3.50;;;;;22.56;97394.40;;;;108974;1266;41626;-66
2022/06/13 04:35:38;;;;;;;9.10;3.90;;;;;23.54;97393.40;;;;108905;1267;41549;-66
2022/06/13 04:38:10;;;;;;;10.50;3.90;;;;;24.26;97388.80;;;;108846;1267;41291;-66
2022/06/13 04:40:43;;;;;;;7.20;3.40;;;;;24.76;97387.20;;;;108971;1266;41843;-67
2022/06/13 04:43:14;;;;;;;10.60;4.00;;;;;25.30;97386.60;;;;108916;1268;41174;-67
2022/06/13 04:45:49;;;;;;;7.90;3.60;;;;;25.72;97387.00;;;;108895;1267;41182;-65
2022/06/13 04:48:20;;;;;;;7.70;3.10;;;;;26.18;97387.20;;;;108986;1267;42289;-65
2022/06/13 04:50:52;;;;;;;5.90;2.80;;;;;26.80;97388.40;;;;108920;1267;41285;-65
2022/06/13 04:53:25;;;;;;;6.70;3.30;;;;;27.30;97388.20;;;;108661;1270;41231;-66
2022/06/13 04:55:54;;;;;;;7.20;3.20;;;;;27.70;97392.40;;;;108681;1273;41311;-66
2022/06/13 04:58:27;;;;;;;9.10;3.70;;;;;27.90;97390.20;;;;108781;1270;41966;-67
2022/06/13 05:01:12;;;;;;;8.50;3.40;;;;;27.74;97392.00;;;;108884;1270;42208;-66
2022/06/13 05:03:43;;;;;;;8.20;3.10;;;;;27.70;97390.20;;;;108913;1267;41284;-67
2022/06/13 05:06:27;;;;;;;7.20;3.10;;;;;27.94;97383.80;;;;108921;1267;41752;-67
2022/06/13 05:09:01;;;;;;;6.60;3.20;;;;;27.66;97384.80;;;;108880;1269;41577;-67
2022/06/13 05:11:47;;;;;;;8.30;3.20;;;;;27.80;97382.20;;;;108863;1269;41284;-66
2022/06/13 05:14:22;;;;;;;7.20;2.70;;;;;27.90;97380.60;;;;108716;1268;42056;-67
2022/06/13 05:16:57;;;;;;;5.20;2.30;;;;;28.48;97381.40;;;;108926;1268;41286;-67
2022/06/13 05:19:39;;;;;;;6.40;2.50;;;;;29.14;97379.00;;;;108803;1268;41303;-66
2022/06/13 05:22:36;;;;;;;8.90;2.70;;;;;29.54;97374.60;;;;108862;1268;41985;-67
2022/06/13 05:25:44;;;;;;;6.50;2.50;;;;;29.30;97370.60;;;;108844;1268;41696;-67
2022/06/13 05:28:19;;;;;;;7.90;2.70;;;;;28.76;97388.60;;;;108844;1268;41184;-66
2022/06/13 05:30:51;;;;;;;6.20;2.40;;;;;27.84;97393.60;;;;108814;1267;42398;-67
2022/06/13 05:33:24;;;;;;;6.40;2.80;;;;;27.04;97400.20;;;;108715;1270;41181;-64
2022/06/13 05:35:56;;;;;;;5.10;2.40;;;;;26.24;97406.00;;;;108630;1269;41301;-65
2022/06/13 05:38:29;;;;;;;8.20;2.80;;;;;25.56;97405.80;;;;108901;1268;41661;-65
2022/06/13 05:40:59;;;;;;;6.90;2.70;;;;;25.22;97401.40;;;;108926;1268;41186;-65
2022/06/13 05:43:28;;;;;;;5.70;2.50;;;;;24.80;97400.40;;;;108836;1268;41279;-67
2022/06/13 05:45:58;;;;;;;5.10;2.20;;;;;24.60;97401.00;;;;108879;1268;41729;-67
2022/06/13 05:48:28;;;;;;;7.00;2.30;;;;;24.60;97402.80;;;;108830;1269;41196;-66
2022/06/13 05:50:57;;;;;;;6.20;2.60;;;;;24.60;97402.00;;;;108767;1273;41453;-67
2022/06/13 05:53:27;;;;;;;6.40;2.40;;;;;24.50;97401.80;;;;108811;1270;41184;-65
2022/06/13 05:55:58;;;;;;;4.50;2.10;;;;;24.84;97390.60;;;;108837;1268;41172;-66
2022/06/13 05:58:27;;;;;;;5.10;2.50;;;;;25.76;97379.40;;;;108626;1269;42340;-66
2022/06/13 06:00:58;;;;;;;6.40;2.70;;;;;26.42;97369.20;;;;108728;1270;41186;-66
2022/06/13 06:03:28;;;;;;;4.50;2.10;;;;;26.90;97368.80;;;;108787;1269;41308;-65
2022/06/13 06:05:58;;;;;;;3.90;2.00;;;;;27.68;97368.80;;;;108806;1270;42104;-68
2022/06/13 06:08:33;;;;;;;4.00;2.10;;;;;28.54;97366.20;;;;108800;1270;41187;-66
2022/06/13 06:11:03;;;;;;;6.10;2.60;;;;;29.02;97360.60;;;;108789;1270;41288;-67
2022/06/13 06:13:32;;;;;;;;;;;;;29.20;97363.40;;;;108671;1270;41625;-67
2022/06/13 06:16:02;;;;;;;6.70;2.40;;;;;29.32;97362.60;;;;108830;1270;42044;-67
2022/06/13 06:18:31;;;;;;;4.90;2.20;;;;;29.40;97363.40;;;;108784;1270;41187;-67
2022/06/13 06:21:00;;;;;;;5.70;2.10;;;;;29.80;97360.20;;;;108782;1270;42519;-67
2022/06/13 06:23:29;;;;;;;5.70;2.60;;;;;30.00;97360.00;;;;108853;1270;41288;-68
2022/06/13 06:25:59;;;;;;;5.80;2.40;;;;;29.74;97359.40;;;;108873;1270;41211;-68
2022/06/13 06:28:28;;;;;;;5.40;2.20;;;;;29.60;97360.40;;;;108493;1270;450088;-68
2022/06/13 06:30:59;;;;;;;5.70;2.40;;;;;29.66;97361.80;;;;108702;1270;41205;-67
2022/06/13 06:33:28;;;;;;;;;;;;;29.28;97369.60;;;;108794;1270;41685;-68
2022/06/13 06:35:57;;;;;;;5.40;2.20;;;;;30.12;97367.40;;;;108781;1270;41343;-68
2022/06/13 06:38:27;;;;;;;6.60;2.10;;;;;30.46;97369.00;;;;108807;1270;41967;-68
2022/06/13 06:40:57;;;;;;;5.30;2.40;;;;;30.84;97367.80;;;;108832;1270;42402;-68
2022/06/13 06:43:26;;;;;;;5.60;2.30;;;;;30.90;97369.80;;;;108661;1270;41691;-68
2022/06/13 06:45:56;;;;;;;5.70;2.40;;;;;30.90;97378.40;;;;108737;1268;42233;-68
2022/06/13 06:48:26;;;;;;;4.90;2.20;;;;;30.46;97379.60;;;;108669;1270;41189;-68
2022/06/13 06:50:56;;;;;;;5.80;2.40;;;;;31.10;97376.40;;;;108937;1269;41178;-68
2022/06/13 06:53:27;;;;;;;5.10;2.20;;;;;30.28;97377.60;;;;108700;1270;41254;-68
2022/06/13 07:01:32;;;;;;;6.00;2.60;;;;;30.72;97378.80;;;;108945;1267;41164;-67
2022/06/13 07:04:01;;;;;;;6.10;2.70;;;;;30.82;97378.40;;;;108917;1268;41336;-67
2022/06/13 07:06:30;;;;;;;9.30;2.30;;;;;30.64;97379.20;;;;108782;1268;41382;-67
2022/06/13 07:08:59;;;;;;;5.00;2.20;;;;;29.98;97384.20;;;;108792;1270;41153;-69
2022/06/13 07:14:16;;;;;;;6.60;2.50;;;;;29.80;97377.60;;;;108825;1270;41236;-68
2022/06/13 07:16:45;;;;;;;6.80;3.10;;;;;29.38;97380.20;;;;108895;1267;41191;-68
2022/06/13 07:19:15;;;;;;;5.10;2.30;;;;;28.58;97385.20;;;;108904;1268;41762;-68
2022/06/13 07:21:44;;;;;;;5.90;2.50;;;;;28.00;97383.60;;;;108648;1269;42472;-68
2022/06/13 07:24:14;;;;;;;5.70;2.70;;;;;27.92;97385.60;;;;108919;1268;41183;-68
2022/06/13 07:26:43;;;;;;;7.40;2.90;;;;;27.88;97381.80;;;;109009;1267;41714;-67
2022/06/13 07:29:13;;;;;;;6.30;2.70;;;;;27.66;97382.60;;;;108961;1267;41722;-68
2022/06/13 07:31:48;;;;;;;6.20;2.80;;;;;27.54;97384.20;;;;108878;1267;41317;-68
2022/06/13 07:34:20;;;;;;;8.20;3.00;;;;;27.50;97384.40;;;;108967;1267;41229;-68
2022/06/13 07:36:51;;;;;;;6.30;2.70;;;;;26.72;97387.60;;;;109036;1268;41168;-68
2022/06/13 07:39:20;;;;;;;;;;;;;26.98;97379.40;;;;109069;1269;41160;-68
2022/06/13 07:41:49;;;;;;;7.80;3.10;;;;;27.20;97380.20;;;;108988;1268;42404;-68
2022/06/13 07:44:38;;;;;;;7.00;3.00;;;;;26.96;97374.40;;;;108851;1268;41357;-67
2022/06/13 07:47:11;;;;;;;7.70;3.00;;;;;27.30;97372.40;;;;108937;1268;41191;-68
2022/06/13 07:49:40;;;;;;;11.60;3.20;;;;;27.20;97369.20;;;;108911;1270;41175;-68
2022/06/13 07:52:09;;;;;;;7.60;2.90;;;;;27.20;97364.80;;;;108789;1269;41506;-67
2022/06/13 07:54:39;;;;;;;7.20;3.10;;;;;27.20;97361.40;;;;108847;1270;41162;-68
2022/06/13 07:57:08;;;;;;;7.30;2.80;;;;;27.12;97362.80;;;;108817;1268;41789;-67
2022/06/13 07:59:39;;;;;;;7.30;2.90;;;;;27.10;97358.00;;;;108823;1270;41505;-67
2022/06/13 08:02:17;;;;;;;6.00;2.60;;;;;27.20;97363.20;;;;108864;1269;41291;-67
2022/06/13 08:04:46;;;;;;;7.40;2.90;;;;;27.38;97363.20;;;;108944;1268;41304;-67
2022/06/13 08:07:31;;;;;;;8.00;3.50;;;;;27.20;97358.80;;;;108915;1268;41639;-67
2022/06/13 08:10:00;;;;;;;7.30;3.30;;;;;27.20;97356.40;;;;108971;1268;41190;-68
2022/06/13 08:12:29;;;;;;;7.70;3.00;;;;;27.10;97359.00;;;;109005;1268;41168;-67
2022/06/13 08:14:58;;;;;;;9.50;3.40;;;;;27.08;97356.20;;;;109057;1270;41902;-66
2022/06/13 08:17:28;;;;;;;7.40;3.30;;;;;26.88;97355.00;;;;108871;1270;41552;-67
2022/06/13 08:19:57;;;;;;;7.00;2.90;;;;;27.10;97353.60;;;;108748;1270;42453;-69
2022/06/13 08:22:26;;;;;;;6.50;2.90;;;;;27.10;97351.60;;;;108821;1269;41929;-69
2022/06/13 08:24:56;;;;;;;11.00;2.90;;;;;27.10;97350.40;;;;108908;1269;41659;-69
2022/06/13 08:27:26;;;;;;;6.90;2.90;;;;;27.12;97351.00;;;;108949;1270;41524;-68
2022/06/13 08:29:56;;;;;;;7.40;3.20;;;;;27.30;97347.20;;;;108985;1268;41181;-69
2022/06/13 08:32:25;;;;;;;7.00;3.10;;;;;27.42;97348.40;;;;108927;1270;41715;-66
2022/06/13 08:34:54;;;;;;;6.80;2.70;;;;;27.40;97349.80;;;;108896;1267;41302;-68
2022/06/13 08:37:23;;;;;;;8.00;2.70;;;;;27.38;97354.80;;;;108897;1270;41227;-69
2022/06/13 08:39:51;;;;;;;9.10;2.70;;;;;27.58;97351.20;;;;109025;1267;41282;-69
2022/06/13 08:42:28;;;;;;;8.80;2.80;;;;;27.76;97344.40;;;;108923;1270;41161;-68
2022/06/13 08:45:07;;;;;;;5.40;2.60;;;;;28.10;97345.20;;;;108899;1270;42142;-69
2022/06/13 08:48:02;;;;;;;6.30;2.40;;;;;28.50;97338.60;;;;109060;1267;41965;-69
2022/06/13 08:50:38;;;;;;;5.90;2.50;;;;;28.90;97339.00;;;;108977;1267;41178;-69
2022/06/13 08:53:13;;;;;;;5.50;2.40;;;;;29.10;97330.40;;;;109128;1267;41218;-67
2022/06/13 08:55:47;;;;;;;5.70;2.50;;;;;29.30;97332.20;;;;109145;1267;41658;-68
2022/06/13 08:58:19;;;;;;;6.60;2.60;;;;;29.40;97330.80;;;;109084;1267;41192;-68
2022/06/13 09:01:07;;;;;;;7.20;2.30;;;;;29.56;97329.40;;;;109070;1268;41168;-69
2022/06/13 09:03:43;;;;;;;6.20;2.60;;;;;29.80;97323.20;;;;108873;1267;41496;-67
2022/06/13 09:06:15;;;;;;;7.40;2.90;;;;;30.20;97321.60;;;;108915;1269;41183;-69
2022/06/13 09:08:57;;;;;;;6.70;2.50;;;;;30.28;97316.60;;;;109177;1267;41506;-69
2022/06/13 09:11:37;;;;;;;6.10;2.80;;;;;30.16;97315.80;;;;109161;1267;42398;-69
2022/06/13 09:14:23;;;;;;;8.70;3.20;;;;;30.10;97317.20;;;;108978;1267;41570;-68
2022/06/13 09:17:04;;;;;;;5.10;2.20;;;;;30.10;97315.80;;;;109042;1267;41232;-68
2022/06/13 09:19:56;;;;;;;6.10;2.80;;;;;29.98;97314.80;;;;108992;1268;41194;-68
2022/06/13 09:22:31;;;;;;;7.10;2.40;;;;;30.16;97312.20;;;;108977;1270;41684;-68
2022/06/13 09:25:17;;;;;;;5.20;2.30;;;;;30.00;97310.60;;;;108978;1269;41311;-68
2022/06/13 09:28:04;;;;;;;8.10;3.10;;;;;31.34;97304.60;;;;109022;1267;41169;-68
2022/06/13 09:30:35;;;;;;;7.10;2.80;;;;;32.20;97297.20;;;;108997;1268;41178;-68
2022/06/13 09:33:09;;;;;;;6.90;2.50;;;;;31.98;97296.60;;;;108949;1267;41283;-69
2022/06/13 09:35:53;;;;;;;5.40;2.30;;;;;32.16;97291.80;;;;109043;1267;41638;-68
2022/06/13 09:38:25;;;;;;;7.00;2.20;;;;;32.60;97282.40;;;;108953;1269;41971;-69
2022/06/13 09:41:05;;;;;;;6.70;2.50;;;;;33.32;97282.60;;;;108931;1268;41209;-68
2022/06/13 09:44:10;;;;;;;5.20;2.10;;;;;34.06;97284.40;;;;109060;1266;40767;-68
2022/06/13 09:46:39;;;;;;;4.20;2.00;;;;;34.00;97280.20;;;;109163;1267;41290;-69
2022/06/13 09:49:42;;;;;;;5.10;2.30;;;;;34.04;97280.20;;;;109019;1268;41625;-70
2022/06/13 09:52:46;;;;;;;6.90;2.70;;;;;34.14;97278.00;;;;108959;1270;41322;-69
2022/06/13 09:55:22;;;;;;;5.40;2.40;;;;;33.80;97274.80;;;;108962;1269;41640;-69
2022/06/13 09:58:00;;;;;;;6.10;2.70;;;;;33.20;97277.60;;;;108875;1269;41342;-68
2022/06/13 10:00:38;;;;;;;5.40;2.40;;;;;33.70;97271.80;;;;109080;1267;41288;-68
2022/06/13 10:03:38;;;;;;;6.70;2.70;;;;;33.30;97270.40;;;;108952;1267;42214;-68
2022/06/13 10:06:15;;;;;;;;;;;;;33.30;97270.80;;;;109088;1267;41179;-69
2022/06/13 10:08:50;;;;;;;8.50;2.80;;;;;33.30;97267.20;;;;108977;1270;41169;-68
2022/06/13 10:11:40;;;;;;;5.60;2.50;;;;;33.70;97265.20;;;;109036;1267;41179;-68
2022/06/13 10:14:20;;;;;;;5.60;2.40;;;;;33.50;97263.00;;;;109019;1267;41162;-69
2022/06/13 10:17:07;;;;;;;8.40;2.70;;;;;33.48;97256.40;;;;108933;1268;41393;-68
2022/06/13 10:20:01;;;;;;;5.60;2.50;;;;;33.60;97254.80;;;;108959;1270;41166;-69
2022/06/13 10:22:39;;;;;;;7.30;2.80;;;;;33.80;97246.40;;;;109186;1267;41428;-70
2022/06/13 10:25:24;;;;;;;7.70;3.10;;;;;33.42;97247.00;;;;109035;1267;41672;-69
2022/06/13 10:28:02;;;;;;;5.30;2.20;;;;;32.36;97240.40;;;;109085;1267;41817;-70
2022/06/13 10:30:48;;;;;;;5.90;2.60;;;;;32.62;97237.60;;;;109092;1267;41647;-69
2022/06/13 10:33:21;;;;;;;8.60;3.00;;;;;32.98;97233.80;;;;109010;1268;41295;-69
2022/06/13 10:36:05;;;;;;;7.80;2.80;;;;;32.70;97238.20;;;;109111;1267;41188;-69
2022/06/13 10:38:57;;;;;;;7.80;2.50;;;;;32.10;97237.80;;;;108979;1267;41186;-69
2022/06/13 10:41:27;;;;;;;7.20;3.00;;;;;32.08;97230.80;;;;108916;1267;42434;-69
2022/06/13 10:43:56;;;;;;;;;;;;;32.14;97231.40;;;;109021;1267;41169;-69
2022/06/13 10:46:25;;;;;;;7.10;3.10;;;;;31.82;97227.60;;;;109032;1267;41637;-68
2022/06/13 10:49:13;;;;;;;6.70;3.00;;;;;31.68;97220.60;;;;109056;1267;41738;-69
2022/06/13 10:51:44;;;;;;;5.30;2.60;;;;;31.84;97219.60;;;;109003;1267;41401;-69
2022/06/13 10:54:17;;;;;;;7.40;2.60;;;;;31.80;97213.80;;;;108881;1268;41278;-69
2022/06/13 10:56:53;;;;;;;6.80;2.60;;;;;32.30;97205.40;;;;109043;1267;41412;-69
2022/06/13 10:59:26;;;;;;;6.70;2.70;;;;;32.70;97200.60;;;;109085;1267;42399;-69
2022/06/13 11:02:00;;;;;;;4.90;2.20;;;;;32.70;97201.20;;;;108980;1269;41291;-69
2022/06/13 11:04:35;;;;;;;7.30;3.00;;;;;32.00;97201.00;;;;109067;1267;41177;-68
2022/06/13 11:07:15;;;;;;;5.60;2.30;;;;;31.76;97205.60;;;;109060;1267;41780;-68
2022/06/13 11:09:56;;;;;;;5.20;2.40;;;;;31.32;97196.80;;;;109063;1267;41722;-70
2022/06/13 11:12:32;;;;;;;4.60;2.20;;;;;31.12;97194.00;;;;109028;1267;42150;-69
2022/06/13 11:24:01;;;;;;;5.10;2.40;;;;;35.48;97164.80;;;;108874;1270;42607;-68
2022/06/13 11:29:25;;;;;;;6.00;2.60;;;;;37.06;97150.40;;;;108947;1268;41580;-68
2022/06/13 11:31:57;;;;;;;4.80;2.20;;;;;38.04;97145.00;;;;108985;1270;41417;-68
2022/06/13 11:34:34;;;;;;;4.50;2.10;;;;;38.70;97143.60;;;;109064;1267;41764;-68
2022/06/13 11:37:14;;;;;;;4.90;2.00;;;;;39.08;97143.00;;;;109070;1267;41396;-68
2022/06/13 11:39:47;;;;;;;6.10;2.20;;;;;39.40;97139.00;;;;108866;1270;41166;-68
2022/06/13 11:42:26;;;;;;;6.80;2.60;;;;;39.82;97134.00;;;;109106;1268;41359;-69
2022/06/13 11:45:04;;;;;;;7.00;2.30;;;;;39.62;97134.20;;;;109038;1267;41625;-69
2022/06/13 11:47:49;;;;;;;7.20;2.80;;;;;38.82;97134.00;;;;108977;1269;41291;-69
2022/06/13 11:50:18;;;;;;;9.00;3.00;;;;;37.56;97133.80;;;;109053;1270;41183;-68
2022/06/13 11:55:51;;;;;;;8.30;3.00;;;;;36.58;97136.80;;;;108945;1270;41291;-69
2022/06/13 11:58:26;;;;;;;5.20;2.10;;;;;36.30;97141.00;;;;109056;1268;41193;-69
2022/06/13 12:01:15;;;;;;;6.80;2.70;;;;;36.22;97132.80;;;;109075;1267;41193;-69
2022/06/13 12:04:01;;;;;;;8.20;2.30;;;;;37.10;97132.60;;;;108918;1270;41152;-69
2022/06/13 12:06:47;;;;;;;6.30;2.70;;;;;35.82;97133.20;;;;109069;1268;41035;-69
2022/06/13 12:09:18;;;;;;;6.60;2.50;;;;;35.24;97134.80;;;;109132;1269;41586;-69
2022/06/13 12:11:56;;;;;;;5.50;2.50;;;;;34.64;97130.40;;;;108770;1270;42008;-68
2022/06/13 12:14:30;;;;;;;8.20;3.00;;;;;34.20;97132.80;;;;108988;1267;41166;-68
2022/06/13 12:17:04;;;;;;;6.40;2.50;;;;;33.50;97132.80;;;;108992;1267;41353;-69
2022/06/13 12:19:37;;;;;;;8.00;2.60;;;;;32.70;97131.00;;;;109081;1267;41911;-69
2022/06/13 12:22:20;;;;;;;7.80;3.40;;;;;32.30;97138.40;;;;109048;1267;42303;-68
2022/06/13 12:24:59;;;;;;;6.60;3.10;;;;;31.72;97135.00;;;;109072;1267;41771;-68
2022/06/13 12:28:03;;;;;;;7.30;2.90;;;;;31.38;97140.00;;;;109083;1267;41855;-68
2022/06/13 12:30:50;;;;;;;7.60;2.70;;;;;31.40;97132.00;;;;109124;1267;42411;-69
2022/06/13 12:33:43;;;;;;;7.00;2.60;;;;;31.54;97133.00;;;;109113;1267;41953;-70
2022/06/13 12:36:28;;;;;;;6.50;2.80;;;;;31.70;97128.00;;;;108820;1267;41301;-68
2022/06/13 12:39:08;;;;;;;9.50;3.00;;;;;31.90;97124.40;;;;109009;1267;41513;-69
2022/06/13 12:42:08;;;;;;;7.30;2.70;;;;;31.84;97119.20;;;;109009;1267;41239;-69
2022/06/13 12:44:47;;;;;;;7.80;2.80;;;;;31.50;97121.60;;;;109001;1267;42159;-69
2022/06/13 12:47:24;;;;;;;7.40;3.20;;;;;31.60;97120.80;;;;109105;1268;41272;-69
2022/06/13 12:50:08;;;;;;;7.30;3.20;;;;;31.38;97122.00;;;;109089;1267;41177;-69
2022/06/13 12:52:53;;;;;;;6.30;2.40;;;;;31.30;97123.20;;;;109176;1267;41190;-69
2022/06/13 12:55:24;;;;;;;6.50;2.70;;;;;31.40;97118.60;;;;109048;1267;41181;-69
2022/06/13 12:58:28;;;;;;;8.20;2.80;;;;;31.40;97117.00;;;;109006;1267;41169;-69
2022/06/13 13:01:02;;;;;;;8.20;3.20;;;;;31.50;97118.00;;;;108997;1267;41180;-69
2022/06/13 13:03:55;;;;;;;8.40;2.80;;;;;31.20;97120.00;;;;108987;1267;41183;-68
2022/06/13 13:06:37;;;;;;;8.60;3.10;;;;;31.14;97111.40;;;;109016;1267;41482;-68
2022/06/13 13:09:08;;;;;;;8.50;3.50;;;;;31.20;97113.60;;;;109084;1268;41162;-69
2022/06/13 13:11:48;;;;;;;7.00;2.80;;;;;31.10;97111.40;;;;109115;1268;42715;-68
2022/06/13 13:14:39;;;;;;;9.70;3.40;;;;;30.90;97106.40;;;;109074;1267;41178;-68
2022/06/13 13:17:26;;;;;;;8.80;3.20;;;;;30.68;97100.20;;;;109120;1268;41301;-68
2022/06/13 13:20:05;;;;;;;8.10;2.80;;;;;30.40;97099.00;;;;109047;1267;41786;-68
2022/06/13 13:22:56;;;;;;;7.60;3.40;;;;;30.12;97099.60;;;;109008;1267;41176;-68
2022/06/13 13:25:50;;;;;;;8.00;3.00;;;;;29.80;97103.60;;;;109103;1267;41179;-69
2022/06/13 13:28:42;;;;;;;8.70;2.80;;;;;29.72;97097.80;;;;108820;1267;41622;-68
2022/06/13 13:31:29;;;;;;;11.40;3.60;;;;;29.60;97091.80;;;;108978;1268;41293;-68